Time;durP1;ratioP1;P1;durP2;ratioP2;P2;SDS_P1;SDS_P2;PMS_P1;PMS_P2;Temp;Humidity;BMP_temperature;BMP_pressure;BME280_temperature;BME280_humidity;BME280_pressure;Samples;Min_cycle;Max_cycle;Signal;HPM_P1;HPM_P2
2022/03/20 00:00:08;;;;;;;21.30;9.10;;;;;-2.80;99962.20;;;;111055;1247;41149;-67
2022/03/20 00:03:07;;;;;;;18.10;8.10;;;;;-2.84;99959.00;;;;110764;1250;41263;-65
2022/03/20 00:05:42;;;;;;;20.20;8.10;;;;;-2.90;99953.00;;;;111093;1247;42060;-65
2022/03/20 00:08:12;;;;;;;17.80;8.20;;;;;-2.90;99955.40;;;;110899;1249;41152;-65
2022/03/20 00:10:47;;;;;;;17.50;8.00;;;;;-2.98;99955.80;;;;110928;1249;42168;-63
2022/03/20 00:13:22;;;;;;;23.00;8.90;;;;;-3.00;99951.60;;;;111126;1247;41161;-65
2022/03/20 00:15:52;;;;;;;24.30;9.80;;;;;-3.00;99960.80;;;;111053;1247;41144;-65
2022/03/20 00:18:26;;;;;;;17.80;8.40;;;;;-3.00;99960.60;;;;111150;1247;41124;-66
2022/03/20 00:20:58;;;;;;;18.60;7.80;;;;;-3.00;99965.80;;;;111050;1247;41194;-65
2022/03/20 00:23:28;;;;;;;19.10;8.80;;;;;-3.10;99964.20;;;;110873;1247;41129;-65
2022/03/20 00:25:58;;;;;;;23.40;10.30;;;;;-3.10;99963.20;;;;111011;1248;41159;-65
2022/03/20 00:28:27;;;;;;;23.00;9.80;;;;;-3.14;99964.00;;;;111002;1247;41718;-65
2022/03/20 00:30:58;;;;;;;18.60;8.80;;;;;-3.20;99964.00;;;;111040;1250;41823;-66
2022/03/20 00:33:27;;;;;;;20.20;8.90;;;;;-3.20;99962.80;;;;111130;1247;41141;-65
2022/03/20 00:35:57;;;;;;;17.80;8.10;;;;;-3.30;99964.80;;;;110934;1248;41216;-65
2022/03/20 00:38:27;;;;;;;17.80;7.50;;;;;-3.30;99960.40;;;;110832;1250;41450;-64
2022/03/20 00:40:58;;;;;;;18.60;7.70;;;;;-3.34;99959.80;;;;110833;1250;41264;-65
2022/03/20 00:43:27;;;;;;;20.60;9.20;;;;;-3.40;99956.20;;;;111028;1249;41618;-65
2022/03/20 00:45:56;;;;;;;18.10;8.00;;;;;-3.40;99951.60;;;;111070;1247;41695;-65
2022/03/20 00:48:27;;;;;;;16.00;6.80;;;;;-3.40;99950.80;;;;111013;1249;41146;-65
2022/03/20 00:51:03;;;;;;;;;;;;;-3.40;99955.20;;;;111134;1247;41264;-65
2022/03/20 00:53:36;;;;;;;14.40;6.50;;;;;-3.44;99954.20;;;;111152;1247;41182;-64
2022/03/20 00:56:07;;;;;;;19.60;7.50;;;;;-3.46;99954.40;;;;111030;1247;41139;-67
2022/03/20 00:58:36;;;;;;;17.20;8.30;;;;;-3.44;99948.20;;;;111212;1247;41162;-64
2022/03/20 01:01:08;;;;;;;18.30;7.80;;;;;-3.50;99948.40;;;;111070;1247;42062;-68
2022/03/20 01:03:38;;;;;;;19.70;8.50;;;;;-3.50;99943.00;;;;111160;1247;41123;-66
2022/03/20 01:06:08;;;;;;;16.70;7.60;;;;;-3.60;99947.40;;;;110882;1248;41153;-66
2022/03/20 01:08:38;;;;;;;19.30;7.70;;;;;-3.60;99945.80;;;;111181;1247;41458;-67
2022/03/20 01:11:08;;;;;;;19.10;7.90;;;;;-3.70;99944.00;;;;111067;1247;41144;-66
2022/03/20 01:13:38;;;;;;;15.90;7.40;;;;;-3.70;99948.40;;;;111133;1247;41614;-66
2022/03/20 01:16:09;;;;;;;15.70;7.20;;;;;-3.80;99945.60;;;;111167;1246;41123;-65
2022/03/20 01:18:39;;;;;;;17.40;8.10;;;;;-3.80;99941.80;;;;111072;1248;41685;-66
2022/03/20 01:21:09;;;;;;;18.30;7.80;;;;;-3.90;99941.40;;;;110742;1248;41211;-66
2022/03/20 01:23:39;;;;;;;16.10;7.20;;;;;-3.92;99943.40;;;;111058;1248;41153;-66
2022/03/20 01:26:11;;;;;;;17.40;7.50;;;;;-4.00;99939.80;;;;111045;1247;41829;-67
2022/03/20 01:28:41;;;;;;;21.80;7.90;;;;;-4.00;99937.20;;;;110995;1248;41149;-68
2022/03/20 01:31:11;;;;;;;17.70;8.00;;;;;-4.00;99930.60;;;;110926;1250;41722;-65
2022/03/20 01:33:41;;;;;;;15.50;7.80;;;;;-4.10;99940.40;;;;110918;1248;41154;-64
2022/03/20 01:36:10;;;;;;;18.10;8.70;;;;;-4.10;99937.80;;;;110968;1249;42173;-66
2022/03/20 01:38:40;;;;;;;17.80;8.30;;;;;-4.10;99938.00;;;;110675;1247;41311;-66
2022/03/20 01:41:10;;;;;;;17.80;8.20;;;;;-4.18;99940.80;;;;110795;1250;41287;-65
2022/03/20 01:43:49;;;;;;;17.00;6.90;;;;;-4.18;99941.60;;;;110947;1248;41256;-66
2022/03/20 01:46:19;;;;;;;17.80;7.80;;;;;-4.20;99939.80;;;;111056;1248;42046;-66
2022/03/20 01:48:50;;;;;;;17.10;7.90;;;;;-4.20;99940.80;;;;110921;1249;42352;-66
2022/03/20 01:52:10;;;;;;;15.30;7.30;;;;;-4.20;99938.20;;;;111117;1247;41150;-66
2022/03/20 01:54:15;;;;;;;19.40;7.50;;;;;-4.20;99940.00;;;;111051;1248;41155;-66
2022/03/20 01:56:48;;;;;;;17.10;7.00;;;;;-4.20;99931.40;;;;111152;1247;41530;-66
2022/03/20 01:59:18;;;;;;;20.70;8.40;;;;;-4.24;99935.00;;;;111063;1247;42278;-68
2022/03/20 02:01:48;;;;;;;19.10;8.50;;;;;-4.30;99932.40;;;;111113;1248;41183;-66
2022/03/20 02:04:18;;;;;;;21.50;10.10;;;;;-4.30;99934.20;;;;111065;1247;41249;-67
2022/03/20 02:06:48;;;;;;;20.50;9.00;;;;;-4.30;99939.80;;;;110740;1250;41770;-66
2022/03/20 02:09:18;;;;;;;21.10;9.90;;;;;-4.30;99939.00;;;;111130;1247;42473;-65
2022/03/20 02:11:48;;;;;;;22.70;9.10;;;;;-4.30;99942.00;;;;111056;1247;41270;-65
2022/03/20 02:14:18;;;;;;;22.30;9.40;;;;;-4.30;99944.40;;;;110871;1248;41492;-65
2022/03/20 02:16:49;;;;;;;15.50;7.30;;;;;-4.30;99942.20;;;;111147;1247;42466;-65
2022/03/20 02:19:19;;;;;;;15.30;7.30;;;;;-4.30;99941.40;;;;111107;1247;41137;-65
2022/03/20 02:21:50;;;;;;;15.10;6.90;;;;;-4.34;99937.20;;;;111081;1248;41623;-65
2022/03/20 02:24:46;;;;;;;15.40;6.80;;;;;-4.40;99942.80;;;;111131;1248;41248;-66
2022/03/20 02:27:17;;;;;;;17.20;7.10;;;;;-4.40;99939.20;;;;111006;1247;41152;-65
2022/03/20 02:29:47;;;;;;;;;;;;;-4.50;99936.20;;;;111198;1244;41241;-65
2022/03/20 02:32:20;;;;;;;12.50;5.90;;;;;-4.60;99947.40;;;;111120;1247;42068;-66
2022/03/20 02:34:50;;;;;;;12.20;5.70;;;;;-4.70;99950.80;;;;111190;1244;41402;-65
2022/03/20 02:37:22;;;;;;;15.80;6.50;;;;;-4.70;99953.00;;;;111443;1245;41600;-66
2022/03/20 02:39:58;;;;;;;14.20;6.50;;;;;-4.80;99951.00;;;;110752;1249;42271;-65
2022/03/20 02:42:29;;;;;;;13.00;6.10;;;;;-4.80;99953.40;;;;110898;1249;41829;-66
2022/03/20 02:45:05;;;;;;;13.60;5.60;;;;;-4.90;99961.60;;;;111463;1244;42341;-66
2022/03/20 02:47:44;;;;;;;13.10;5.50;;;;;-4.90;99956.60;;;;111264;1245;41345;-65
2022/03/20 02:50:18;;;;;;;12.60;5.80;;;;;-5.00;99966.00;;;;111113;1247;41416;-66
2022/03/20 02:52:53;;;;;;;20.30;8.80;;;;;-5.00;99969.60;;;;111273;1246;41207;-66
2022/03/20 02:55:25;;;;;;;19.70;9.40;;;;;-5.00;99970.60;;;;111060;1248;41184;-65
2022/03/20 02:57:59;;;;;;;17.70;8.30;;;;;-5.10;99967.00;;;;110921;1247;42170;-67
2022/03/20 03:00:30;;;;;;;16.60;7.40;;;;;-5.10;99965.60;;;;111124;1247;42236;-66
2022/03/20 03:03:02;;;;;;;18.80;7.80;;;;;-5.10;99960.20;;;;111226;1245;41626;-66
2022/03/20 03:05:32;;;;;;;16.40;7.20;;;;;-5.14;99956.60;;;;111010;1248;41139;-65
2022/03/20 03:10:56;;;;;;;18.00;6.80;;;;;-5.30;99961.20;;;;111127;1247;41310;-65
2022/03/20 03:13:40;;;;;;;15.00;6.60;;;;;-5.40;99963.20;;;;111034;1247;42318;-66
2022/03/20 03:16:15;;;;;;;14.90;6.60;;;;;-5.40;99961.20;;;;111023;1248;41264;-66
2022/03/20 03:18:47;;;;;;;13.10;6.00;;;;;-5.42;99961.20;;;;111070;1248;41699;-66
2022/03/20 03:21:17;;;;;;;14.00;6.40;;;;;-5.50;99957.60;;;;111144;1247;41144;-65
2022/03/20 03:23:47;;;;;;;15.50;6.90;;;;;-5.50;99968.20;;;;111052;1247;41143;-66
2022/03/20 03:26:17;;;;;;;15.50;7.10;;;;;-5.50;99963.60;;;;111306;1247;41258;-66
2022/03/20 03:28:47;;;;;;;16.30;7.20;;;;;-5.60;99965.40;;;;111048;1249;41189;-64
2022/03/20 03:31:17;;;;;;;14.00;6.60;;;;;-5.60;99963.60;;;;111096;1247;41650;-65
2022/03/20 03:36:36;;;;;;;15.10;6.60;;;;;-5.70;99959.20;;;;111045;1249;41150;-65
2022/03/20 03:39:07;;;;;;;13.50;6.40;;;;;-5.70;99966.80;;;;111070;1247;41174;-65
2022/03/20 03:41:38;;;;;;;15.00;6.80;;;;;-5.74;99960.20;;;;111087;1247;41249;-65
2022/03/20 03:44:08;;;;;;;17.00;7.30;;;;;-5.80;99962.20;;;;111137;1247;41618;-66
2022/03/20 03:46:39;;;;;;;15.80;7.40;;;;;-5.80;99961.80;;;;111100;1247;41170;-66
2022/03/20 03:49:09;;;;;;;16.90;6.60;;;;;-5.80;99963.60;;;;111109;1247;41185;-65
2022/03/20 03:51:40;;;;;;;15.40;7.10;;;;;-5.80;99959.60;;;;111132;1245;41244;-65
2022/03/20 03:54:10;;;;;;;16.80;6.70;;;;;-5.80;99963.20;;;;111107;1244;41613;-65
2022/03/20 03:56:41;;;;;;;16.90;6.60;;;;;-5.80;99959.40;;;;111031;1247;41146;-65
2022/03/20 03:59:11;;;;;;;17.50;7.30;;;;;-5.80;99964.60;;;;111122;1245;41863;-65
2022/03/20 04:01:41;;;;;;;16.60;7.10;;;;;-5.80;99968.60;;;;111120;1247;41254;-65
2022/03/20 04:04:12;;;;;;;16.30;7.70;;;;;-5.80;99964.00;;;;111076;1247;42574;-65
2022/03/20 04:06:42;;;;;;;19.90;7.60;;;;;-5.80;99972.80;;;;110886;1249;41146;-64
2022/03/20 04:09:11;;;;;;;13.00;6.00;;;;;-5.80;99972.80;;;;111367;1247;41357;-66
2022/03/20 04:11:42;;;;;;;15.10;6.60;;;;;-5.80;99967.60;;;;110887;1247;41387;-66
2022/03/20 04:14:12;;;;;;;16.10;7.30;;;;;-5.80;99972.80;;;;111069;1247;41992;-67
2022/03/20 04:16:42;;;;;;;16.60;7.80;;;;;-5.80;99976.00;;;;111075;1247;41434;-64
2022/03/20 04:19:12;;;;;;;14.60;7.10;;;;;-5.80;99983.00;;;;111405;1244;42282;-65
2022/03/20 04:21:42;;;;;;;14.60;6.90;;;;;-5.80;99976.80;;;;111203;1244;41370;-65
2022/03/20 04:24:13;;;;;;;14.70;6.40;;;;;-5.80;99976.20;;;;110706;1250;41167;-65
2022/03/20 04:26:44;;;;;;;13.80;6.90;;;;;-5.80;99978.40;;;;111084;1247;41146;-65
2022/03/20 04:29:14;;;;;;;16.40;7.60;;;;;-5.80;99978.80;;;;111083;1247;41140;-65
2022/03/20 04:31:44;;;;;;;17.50;7.40;;;;;-5.80;99976.20;;;;111046;1249;41169;-66
2022/03/20 04:34:14;;;;;;;17.60;7.20;;;;;-5.80;99974.00;;;;111272;1247;41947;-66
2022/03/20 04:36:44;;;;;;;17.90;6.80;;;;;-5.80;99979.60;;;;111147;1246;41931;-64
2022/03/20 04:39:13;;;;;;;22.20;8.30;;;;;-5.80;99981.00;;;;111016;1248;41150;-67
2022/03/20 04:41:44;;;;;;;16.80;7.40;;;;;-5.80;99985.00;;;;110857;1249;41631;-67
2022/03/20 04:44:13;;;;;;;15.60;7.90;;;;;-5.78;99989.80;;;;111133;1247;41381;-66
2022/03/20 04:46:45;;;;;;;16.10;7.10;;;;;-5.74;99990.00;;;;110949;1248;41146;-65
2022/03/20 05:00:30;;;;;;;19.30;8.90;;;;;-5.50;99998.00;;;;111083;1248;41158;-65
2022/03/20 05:03:00;;;;;;;22.30;8.70;;;;;-5.42;99999.20;;;;111100;1244;42485;-65
2022/03/20 05:05:30;;;;;;;21.40;8.50;;;;;-5.40;99995.60;;;;111080;1247;41158;-65
2022/03/20 05:07:59;;;;;;;19.60;8.80;;;;;-5.30;99995.60;;;;111129;1247;41152;-65
2022/03/20 05:13:20;;;;;;;18.90;8.40;;;;;-5.20;100010.80;;;;111159;1248;41164;-67
2022/03/20 05:15:54;;;;;;;20.60;8.70;;;;;-5.10;100005.80;;;;110935;1249;41714;-65
2022/03/20 05:18:24;;;;;;;20.40;7.80;;;;;-5.00;100011.00;;;;111167;1247;41997;-66
2022/03/20 05:20:54;;;;;;;19.40;8.90;;;;;-4.90;100005.80;;;;110860;1248;41159;-65
2022/03/20 05:23:23;;;;;;;22.80;10.40;;;;;-4.80;100012.20;;;;111176;1247;41393;-65
2022/03/20 05:25:53;;;;;;;24.30;10.60;;;;;-4.70;100007.60;;;;110902;1248;42374;-65
2022/03/20 05:28:23;;;;;;;21.30;8.80;;;;;-4.60;100006.80;;;;110861;1249;42287;-65
2022/03/20 05:30:54;;;;;;;20.90;9.30;;;;;-4.58;100008.60;;;;111040;1248;41236;-65
2022/03/20 05:33:23;;;;;;;21.60;10.70;;;;;-4.48;99996.80;;;;111076;1247;41237;-66
2022/03/20 05:35:53;;;;;;;28.00;13.20;;;;;-4.30;100004.20;;;;111018;1248;41155;-65
2022/03/20 05:38:23;;;;;;;25.50;11.50;;;;;-4.20;100006.60;;;;111105;1247;41152;-66
2022/03/20 05:41:43;;;;;;;18.80;9.70;;;;;-4.00;100006.00;;;;111074;1246;41710;-67
2022/03/20 05:43:42;;;;;;;19.70;9.50;;;;;-3.74;100006.80;;;;111044;1248;41252;-64
2022/03/20 05:46:12;;;;;;;20.20;9.90;;;;;-3.50;100000.80;;;;111019;1248;41398;-65
2022/03/20 05:48:41;;;;;;;30.60;14.10;;;;;-3.30;100007.20;;;;111043;1248;41255;-66
2022/03/20 05:51:10;;;;;;;35.40;17.50;;;;;-3.16;100012.20;;;;111019;1248;41248;-63
2022/03/20 05:53:40;;;;;;;36.00;16.40;;;;;-3.10;100005.40;;;;111093;1247;42378;-65
2022/03/20 05:58:59;;;;;;;53.90;23.60;;;;;-2.84;100016.40;;;;111066;1247;41146;-65
2022/03/20 06:01:29;;;;;;;70.20;27.20;;;;;-2.78;100009.40;;;;111122;1248;40994;-64
2022/03/20 06:04:00;;;;;;;58.50;24.70;;;;;-2.70;100009.80;;;;111037;1248;41208;-65
2022/03/20 06:06:32;;;;;;;56.30;23.10;;;;;-2.60;100015.20;;;;111071;1248;41403;-65
2022/03/20 06:09:03;;;;;;;46.90;20.00;;;;;-2.50;100014.80;;;;111019;1247;41216;-65
2022/03/20 06:11:35;;;;;;;41.40;17.50;;;;;-2.40;100008.40;;;;110944;1250;41252;-65
2022/03/20 06:14:05;;;;;;;37.60;16.30;;;;;-2.28;100005.80;;;;110998;1250;41612;-65
2022/03/20 06:16:36;;;;;;;42.50;17.50;;;;;-2.20;100003.80;;;;111078;1245;41934;-65
2022/03/20 06:19:07;;;;;;;43.30;17.60;;;;;-2.00;99999.40;;;;111108;1244;41281;-66
2022/03/20 06:21:36;;;;;;;42.10;17.70;;;;;-1.80;99995.80;;;;110848;1249;41147;-66
2022/03/20 06:24:06;;;;;;;41.10;18.30;;;;;-1.52;99987.00;;;;111085;1248;41146;-65
2022/03/20 06:26:36;;;;;;;41.50;17.60;;;;;-1.34;99980.40;;;;111080;1249;41210;-65
2022/03/20 06:29:06;;;;;;;37.10;16.60;;;;;-1.14;99982.80;;;;111048;1247;41525;-66
2022/03/20 06:31:35;;;;;;;35.70;15.80;;;;;-0.94;99992.40;;;;111163;1248;41249;-64
2022/03/20 06:34:05;;;;;;;34.10;14.90;;;;;-0.68;100010.40;;;;111085;1247;41507;-64
2022/03/20 06:36:35;;;;;;;32.80;13.60;;;;;-0.30;100002.80;;;;110893;1248;42238;-65
2022/03/20 06:39:06;;;;;;;28.20;11.70;;;;;0.00;99995.20;;;;111056;1248;40906;-65
2022/03/20 06:41:36;;;;;;;31.30;12.20;;;;;0.30;99993.40;;;;111274;1247;40730;-66
2022/03/20 06:44:06;;;;;;;24.60;10.70;;;;;0.50;99993.40;;;;111091;1248;41709;-67
2022/03/20 06:46:37;;;;;;;21.80;9.80;;;;;0.80;99997.80;;;;111125;1247;41246;-66
2022/03/20 06:49:08;;;;;;;;;;;;;1.16;100000.00;;;;111021;1247;41187;-66
2022/03/20 06:51:37;;;;;;;20.80;9.20;;;;;1.50;99997.80;;;;111199;1247;41562;-65
2022/03/20 06:54:07;;;;;;;23.70;9.70;;;;;1.80;99990.80;;;;111034;1248;41150;-65
2022/03/20 06:56:36;;;;;;;23.50;10.30;;;;;2.00;99986.80;;;;111130;1247;41145;-65
2022/03/20 06:59:05;;;;;;;22.50;9.80;;;;;2.14;99979.80;;;;111172;1246;41148;-65
2022/03/20 07:01:34;;;;;;;22.80;9.60;;;;;2.22;99973.20;;;;111111;1246;41924;-65
2022/03/20 07:04:05;;;;;;;19.20;8.10;;;;;2.50;99967.00;;;;111125;1247;41133;-66
2022/03/20 07:06:34;;;;;;;15.90;7.00;;;;;2.80;99963.60;;;;111113;1247;42371;-65
2022/03/20 07:09:04;;;;;;;14.50;5.70;;;;;3.12;99957.00;;;;111080;1247;41378;-65
2022/03/20 07:11:34;;;;;;;17.00;6.70;;;;;3.30;99952.80;;;;111096;1247;41168;-66
2022/03/20 07:14:03;;;;;;;11.30;5.10;;;;;3.50;99950.60;;;;110763;1248;41608;-66
2022/03/20 07:16:33;;;;;;;13.60;5.40;;;;;3.70;99948.60;;;;111118;1247;41156;-67
2022/03/20 07:19:04;;;;;;;12.40;5.80;;;;;4.04;99952.60;;;;111008;1249;42853;-66
2022/03/20 07:21:33;;;;;;;14.50;6.60;;;;;4.28;99952.80;;;;111164;1248;41145;-65
2022/03/20 07:24:03;;;;;;;12.00;5.40;;;;;4.50;99941.20;;;;111055;1248;41402;-65
2022/03/20 07:29:29;;;;;;;13.20;6.10;;;;;5.10;99940.60;;;;111131;1248;43222;-64
2022/03/20 07:32:07;;;;;;;14.50;6.10;;;;;5.40;99935.00;;;;110481;1249;740373;-65
2022/03/20 07:34:39;;;;;;;12.70;5.70;;;;;5.60;99933.80;;;;111076;1247;41250;-65
2022/03/20 07:37:16;;;;;;;13.80;6.20;;;;;5.80;99926.80;;;;111145;1247;41422;-64
2022/03/20 07:39:46;;;;;;;14.10;5.90;;;;;6.10;99920.60;;;;111115;1247;41140;-65
2022/03/20 07:42:16;;;;;;;11.40;5.10;;;;;6.44;99921.80;;;;111045;1245;41646;-65
2022/03/20 07:44:47;;;;;;;13.40;5.50;;;;;6.90;99918.80;;;;110740;1250;41182;-65
2022/03/20 07:47:21;;;;;;;14.10;5.10;;;;;7.10;99925.40;;;;111284;1248;41267;-66
2022/03/20 07:49:51;;;;;;;13.40;5.30;;;;;7.26;99932.40;;;;111109;1247;41163;-66
2022/03/20 07:52:20;;;;;;;11.60;5.60;;;;;7.52;99935.20;;;;111136;1247;41567;-66
2022/03/20 07:54:50;;;;;;;14.50;6.50;;;;;7.90;99931.40;;;;111087;1248;41515;-65
2022/03/20 07:57:19;;;;;;;17.20;7.00;;;;;8.20;99925.60;;;;111065;1247;41561;-67
2022/03/20 07:59:48;;;;;;;15.70;6.30;;;;;8.20;99928.20;;;;111008;1248;41155;-68
2022/03/20 08:02:17;;;;;;;12.90;5.20;;;;;8.30;99929.80;;;;111100;1248;41628;-66
2022/03/20 08:04:46;;;;;;;11.60;5.40;;;;;8.56;99926.80;;;;111016;1250;42393;-66
2022/03/20 08:07:15;;;;;;;13.50;5.10;;;;;9.02;99921.20;;;;111072;1247;41261;-66
2022/03/20 08:09:44;;;;;;;11.80;5.20;;;;;9.40;99923.80;;;;111043;1248;41694;-66
2022/03/20 08:12:13;;;;;;;12.20;5.20;;;;;9.70;99917.60;;;;111138;1248;41255;-65
2022/03/20 08:15:00;;;;;;;12.30;4.70;;;;;10.10;99914.20;;;;111060;1248;41258;-66
2022/03/20 08:17:29;;;;;;;12.40;5.20;;;;;10.32;99907.00;;;;111101;1248;42510;-65
2022/03/20 08:19:59;;;;;;;13.50;5.20;;;;;10.70;99895.20;;;;111068;1247;41130;-66
2022/03/20 08:22:28;;;;;;;14.70;7.40;;;;;10.80;99889.60;;;;111177;1248;41202;-66
2022/03/20 08:24:57;;;;;;;15.10;6.70;;;;;11.00;99887.20;;;;111104;1247;41140;-66
2022/03/20 08:27:27;;;;;;;16.60;5.60;;;;;11.26;99883.00;;;;111131;1248;41210;-66
2022/03/20 08:29:59;;;;;;;11.70;5.40;;;;;11.70;99879.80;;;;111115;1248;41247;-65
2022/03/20 08:32:30;;;;;;;11.20;4.40;;;;;12.38;99876.00;;;;111092;1247;41976;-66
2022/03/20 08:35:00;;;;;;;13.30;5.50;;;;;13.38;99869.40;;;;111141;1248;41146;-67
2022/03/20 08:37:29;;;;;;;11.80;5.20;;;;;14.36;99855.20;;;;110834;1250;41142;-67
2022/03/20 08:39:58;;;;;;;13.10;5.70;;;;;15.64;99854.00;;;;111083;1248;41151;-69
2022/03/20 08:42:28;;;;;;;12.80;5.90;;;;;16.86;99851.40;;;;111112;1247;41319;-66
2022/03/20 08:44:57;;;;;;;9.40;4.70;;;;;18.00;99838.40;;;;111060;1247;42289;-67
2022/03/20 08:47:27;;;;;;;12.10;5.30;;;;;19.04;99836.20;;;;111098;1248;41143;-67
2022/03/20 08:49:57;;;;;;;13.50;4.90;;;;;19.82;99836.60;;;;111100;1247;42572;-67
2022/03/20 08:52:26;;;;;;;11.50;4.80;;;;;20.56;99832.80;;;;111047;1249;41799;-66
2022/03/20 08:54:55;;;;;;;10.00;5.20;;;;;21.58;99822.20;;;;111076;1247;41245;-66
2022/03/20 08:57:25;;;;;;;10.80;4.80;;;;;22.50;99819.40;;;;111087;1246;41654;-67
2022/03/20 08:59:54;;;;;;;;;;;;;22.70;99823.40;;;;111149;1247;42033;-68
2022/03/20 09:02:24;;;;;;;10.60;3.90;;;;;23.28;99823.40;;;;111136;1247;41143;-67
2022/03/20 09:04:53;;;;;;;10.10;3.90;;;;;23.50;99820.00;;;;110904;1248;41630;-68
2022/03/20 09:07:22;;;;;;;11.80;4.40;;;;;23.50;99817.00;;;;110997;1249;41154;-67
2022/03/20 09:09:51;;;;;;;13.20;4.50;;;;;23.32;99818.80;;;;111057;1249;41922;-68
2022/03/20 09:12:21;;;;;;;10.20;4.00;;;;;22.76;99825.40;;;;111108;1248;41542;-67
2022/03/20 09:14:50;;;;;;;13.40;4.80;;;;;22.50;99823.40;;;;111109;1247;41707;-68
2022/03/20 09:20:07;;;;;;;8.70;3.90;;;;;22.04;99820.60;;;;110998;1249;41632;-67
2022/03/20 09:22:36;;;;;;;11.60;4.40;;;;;22.20;99816.20;;;;111120;1248;41143;-68
2022/03/20 09:25:07;;;;;;;10.40;4.10;;;;;22.50;99816.00;;;;111204;1248;43026;-68
2022/03/20 09:27:36;;;;;;;11.20;4.40;;;;;22.96;99804.40;;;;110809;1251;41143;-68
2022/03/20 09:30:07;;;;;;;9.50;3.90;;;;;23.80;99797.00;;;;110829;1249;41268;-68
2022/03/20 09:32:36;;;;;;;9.80;4.30;;;;;25.04;99789.40;;;;110750;1251;41255;-67
2022/03/20 09:35:05;;;;;;;11.80;4.80;;;;;26.10;99785.80;;;;110932;1249;42284;-68
2022/03/20 09:37:35;;;;;;;10.50;4.80;;;;;26.60;99778.20;;;;110711;1250;41140;-67
2022/03/20 09:40:06;;;;;;;12.30;4.80;;;;;26.12;99774.40;;;;110920;1249;41162;-65
2022/03/20 09:42:35;;;;;;;14.90;4.30;;;;;26.30;99777.80;;;;110732;1250;41144;-68
2022/03/20 09:45:05;;;;;;;12.00;6.00;;;;;27.04;99769.20;;;;110727;1250;41261;-67
2022/03/20 09:47:40;;;;;;;10.60;4.20;;;;;27.90;99765.40;;;;110725;1248;42370;-67
2022/03/20 09:50:11;;;;;;;10.90;4.30;;;;;28.58;99764.60;;;;110806;1251;41266;-68
2022/03/20 09:52:41;;;;;;;9.10;4.00;;;;;28.70;99768.60;;;;110870;1248;42038;-68
2022/03/20 09:55:10;;;;;;;11.50;4.50;;;;;29.26;99765.40;;;;110895;1250;41425;-68
2022/03/20 09:57:40;;;;;;;11.50;4.90;;;;;29.80;99764.60;;;;110732;1250;41159;-68
2022/03/20 10:00:15;;;;;;;9.60;4.20;;;;;30.10;99765.60;;;;110991;1249;41266;-67
2022/03/20 10:02:44;;;;;;;10.80;4.40;;;;;30.10;99755.40;;;;110853;1250;41147;-68
2022/03/20 10:05:20;;;;;;;11.70;4.70;;;;;30.64;99749.40;;;;110764;1248;41602;-67
2022/03/20 10:07:49;;;;;;;10.20;4.60;;;;;30.64;99749.40;;;;110910;1250;41979;-67
2022/03/20 10:10:25;;;;;;;9.20;4.50;;;;;30.20;99747.40;;;;110973;1250;41939;-67
2022/03/20 10:12:58;;;;;;;11.70;5.40;;;;;30.30;99746.60;;;;110891;1249;41401;-67
2022/03/20 10:15:41;;;;;;;9.90;4.70;;;;;30.24;99742.40;;;;110934;1250;41258;-68
2022/03/20 10:18:17;;;;;;;11.70;4.60;;;;;30.30;99742.40;;;;111048;1248;42432;-66
2022/03/20 10:20:53;;;;;;;11.10;4.90;;;;;30.40;99740.00;;;;110895;1251;41150;-67
2022/03/20 10:23:29;;;;;;;11.40;4.70;;;;;30.00;99743.60;;;;110856;1250;41130;-68
2022/03/20 10:26:00;;;;;;;10.50;4.80;;;;;30.04;99733.20;;;;110738;1249;41623;-67
2022/03/20 10:28:49;;;;;;;11.30;5.60;;;;;29.32;99731.40;;;;111056;1249;41617;-68
2022/03/20 10:31:22;;;;;;;10.80;4.30;;;;;28.14;99723.20;;;;110912;1250;41143;-68
2022/03/20 10:34:03;;;;;;;9.60;4.10;;;;;27.56;99726.20;;;;110953;1248;42019;-68
2022/03/20 10:36:35;;;;;;;11.80;4.10;;;;;27.72;99719.20;;;;111021;1247;41137;-68
2022/03/20 10:39:14;;;;;;;10.80;4.80;;;;;28.34;99713.60;;;;110773;1249;41956;-67
2022/03/20 10:41:45;;;;;;;11.60;4.70;;;;;27.50;99714.00;;;;110692;1250;41725;-67
2022/03/20 10:44:31;;;;;;;15.20;5.10;;;;;27.40;99712.60;;;;111028;1248;41430;-67
2022/03/20 10:47:10;;;;;;;9.80;4.50;;;;;27.10;99712.60;;;;110879;1250;41304;-67
2022/03/20 10:50:01;;;;;;;10.80;4.40;;;;;27.04;99713.20;;;;110806;1249;41584;-67
2022/03/20 10:52:30;;;;;;;9.70;4.20;;;;;27.30;99718.40;;;;111068;1248;41143;-68
2022/03/20 10:54:59;;;;;;;9.70;3.80;;;;;28.14;99710.60;;;;110971;1248;41350;-68
2022/03/20 10:57:33;;;;;;;8.90;4.00;;;;;29.10;99709.60;;;;111027;1249;41308;-68
2022/03/20 11:00:08;;;;;;;8.20;3.60;;;;;29.98;99708.60;;;;111149;1247;41454;-67
2022/03/20 11:02:39;;;;;;;9.90;4.00;;;;;30.68;99703.20;;;;111084;1248;41374;-67
2022/03/20 11:05:09;;;;;;;9.20;3.80;;;;;30.86;99702.40;;;;111181;1250;42682;-66
2022/03/20 11:07:37;;;;;;;8.40;4.00;;;;;30.50;99690.00;;;;111072;1248;41624;-68
2022/03/20 11:10:11;;;;;;;9.70;4.00;;;;;30.20;99692.00;;;;110883;1250;41182;-68
2022/03/20 11:12:42;;;;;;;8.60;3.60;;;;;29.90;99700.60;;;;111135;1247;41725;-68
2022/03/20 11:15:11;;;;;;;9.60;4.20;;;;;29.60;99687.40;;;;111346;1247;41243;-67
2022/03/20 11:17:45;;;;;;;9.30;4.00;;;;;29.36;99687.40;;;;111269;1247;42368;-68
2022/03/20 11:20:18;;;;;;;10.50;3.90;;;;;29.62;99680.60;;;;111275;1246;41441;-68
2022/03/20 11:22:50;;;;;;;9.40;4.40;;;;;30.40;99675.00;;;;111121;1248;42829;-67
2022/03/20 11:25:24;;;;;;;10.80;4.40;;;;;31.14;99676.60;;;;111124;1248;41136;-68
2022/03/20 11:27:59;;;;;;;8.90;3.90;;;;;31.70;99668.40;;;;111159;1247;41146;-68
2022/03/20 11:30:30;;;;;;;10.20;3.50;;;;;31.60;99669.60;;;;111100;1248;41592;-68
2022/03/20 11:33:00;;;;;;;8.60;3.50;;;;;32.00;99666.80;;;;110935;1250;41159;-69
2022/03/20 11:35:30;;;;;;;;;;;;;32.30;99661.00;;;;111020;1250;42593;-70
2022/03/20 11:38:24;;;;;;;8.70;3.70;;;;;32.76;99661.80;;;;110912;1250;41290;-70
2022/03/20 11:41:05;;;;;;;8.60;3.70;;;;;33.16;99657.80;;;;111181;1248;41264;-68
2022/03/20 11:43:36;;;;;;;8.70;3.80;;;;;32.90;99652.80;;;;111210;1247;41240;-66
2022/03/20 11:46:21;;;;;;;10.00;3.50;;;;;33.00;99642.60;;;;111103;1248;41174;-67
2022/03/20 11:49:19;;;;;;;9.70;3.40;;;;;33.30;99640.00;;;;111059;1249;42294;-69
2022/03/20 11:52:06;;;;;;;8.70;3.80;;;;;32.80;99635.80;;;;111149;1247;43260;-68
2022/03/20 11:54:41;;;;;;;8.40;3.80;;;;;33.24;99630.60;;;;111109;1247;41261;-68
2022/03/20 11:57:29;;;;;;;8.90;3.80;;;;;33.14;99631.40;;;;111059;1247;41163;-68
2022/03/20 12:00:11;;;;;;;9.20;3.60;;;;;32.90;99626.20;;;;111268;1247;41142;-70
2022/03/20 12:02:51;;;;;;;9.10;3.80;;;;;32.98;99618.20;;;;111259;1247;41124;-67
2022/03/20 12:05:39;;;;;;;9.20;3.50;;;;;33.30;99611.40;;;;111231;1248;41132;-68
2022/03/20 12:08:35;;;;;;;9.50;3.70;;;;;33.70;99609.20;;;;111258;1247;41550;-68
2022/03/20 12:11:16;;;;;;;11.20;4.40;;;;;33.82;99609.20;;;;111220;1247;41705;-68
2022/03/20 12:13:54;;;;;;;12.40;5.40;;;;;33.40;99605.00;;;;111062;1249;42391;-67
2022/03/20 12:16:45;;;;;;;8.70;3.90;;;;;32.74;99597.60;;;;111132;1248;42348;-68
2022/03/20 12:19:20;;;;;;;8.40;3.40;;;;;32.34;99594.00;;;;111122;1247;41827;-69
2022/03/20 12:21:54;;;;;;;7.70;3.30;;;;;32.32;99587.20;;;;111080;1247;41157;-68
2022/03/20 12:24:38;;;;;;;8.80;3.80;;;;;32.10;99590.00;;;;111147;1247;41204;-68
2022/03/20 12:27:24;;;;;;;9.40;3.90;;;;;31.34;99589.40;;;;111127;1249;41260;-69
2022/03/20 12:29:54;;;;;;;10.90;3.80;;;;;30.12;99585.60;;;;111098;1248;41738;-69
2022/03/20 12:32:23;;;;;;;;;;;;;28.88;99586.20;;;;111162;1249;41351;-68
2022/03/20 12:35:04;;;;;;;9.60;3.50;;;;;28.40;99590.00;;;;111229;1248;41152;-67
2022/03/20 12:37:37;;;;;;;9.60;4.00;;;;;28.20;99580.60;;;;111131;1248;41597;-71
2022/03/20 12:40:09;;;;;;;9.80;3.80;;;;;27.90;99582.40;;;;110896;1251;41154;-68
2022/03/20 12:43:05;;;;;;;8.00;3.20;;;;;27.14;99582.20;;;;111127;1248;41258;-70
2022/03/20 12:45:37;;;;;;;8.60;3.30;;;;;26.70;99577.40;;;;110941;1250;42376;-67
2022/03/20 12:48:11;;;;;;;11.80;4.10;;;;;26.50;99588.40;;;;111063;1248;41305;-69
2022/03/20 12:50:42;;;;;;;12.60;4.50;;;;;25.66;99579.40;;;;111086;1248;41163;-68
2022/03/20 12:53:16;;;;;;;11.60;4.50;;;;;24.88;99577.80;;;;111096;1248;42035;-67